Oxford, Georgia
Current Conditions -  °F | °C
As of 11:15 AM on Thursday 27 Nov 2014 (Local Time) from KCVC Reporting Station
Overcast Overcast  
Wind Chill: 41°   Ceiling: 4300
Heat Index: 46°   Visibility: 10mi
Dew Point: 32°   Wind: 12mph
Humidity: 57%   Direction: 300°WNW
Pressure: 30.26"   Gusts: 20mph
Location:  33.62°N, 83.87°W
Report Text: KCVC 271615Z AUTO 30010G17KT 10SM SCT035 BKN043 OVC050 08/00 A3026 RMK AO2
Loading
Personal Weather Stations






























Interactive Weather Map New forecast layout! Learn more

10-Day Weather Forecast

Advertisements
Track Severe Weather on mobile